Time;durP1;ratioP1;P1;durP2;ratioP2;P2;SDS_P1;SDS_P2;PMS_P1;PMS_P2;Temp;Humidity;BMP_temperature;BMP_pressure;BME280_temperature;BME280_humidity;BME280_pressure;Samples;Min_cycle;Max_cycle;Signal;HPM_P1;HPM_P2
2021/04/06 00:00:09;;;;;;;4.05;2.00;;;1.60;68.10;;;;;;5089193;28;20036;-63
2021/04/06 00:02:42;;;;;;;3.33;2.30;;;1.60;68.40;;;;;;5084371;28;20032;-63
2021/04/06 00:05:15;;;;;;;4.30;2.00;;;1.60;67.60;;;;;;5088586;28;20060;-63
2021/04/06 00:07:44;;;;;;;4.55;2.00;;;1.70;67.80;;;;;;5087961;28;20046;-63
2021/04/06 00:10:18;;;;;;;4.07;2.33;;;1.60;67.70;;;;;;5088038;28;20795;-64
2021/04/06 00:12:47;;;;;;;6.43;2.47;;;1.70;67.70;;;;;;5081504;28;20036;-64
2021/04/06 00:15:23;;;;;;;2.97;2.08;;;1.70;67.50;;;;;;5086811;28;20036;-63
2021/04/06 00:17:56;;;;;;;4.05;2.20;;;1.70;67.60;;;;;;5088942;28;20032;-64
2021/04/06 00:20:28;;;;;;;3.53;1.98;;;1.70;67.60;;;;;;5080125;28;20131;-63
2021/04/06 00:22:57;;;;;;;4.00;2.20;;;1.70;67.30;;;;;;5087039;28;20043;-64
2021/04/06 00:25:29;;;;;;;3.88;1.98;;;1.70;67.10;;;;;;5082575;28;20036;-63
2021/04/06 00:28:02;;;;;;;3.95;2.03;;;1.60;66.80;;;;;;5087389;28;20028;-64
2021/04/06 00:30:32;;;;;;;2.53;1.77;;;1.60;66.80;;;;;;5083657;28;22497;-63
2021/04/06 00:33:08;;;;;;;7.00;2.03;;;1.60;66.70;;;;;;5088717;28;20060;-59
2021/04/06 00:35:41;;;;;;;3.20;1.58;;;1.60;66.70;;;;;;5086717;28;20070;-64
2021/04/06 00:38:17;;;;;;;3.20;1.80;;;1.60;66.60;;;;;;5087472;28;20028;-63
2021/04/06 00:40:51;;;;;;;5.68;1.95;;;1.60;66.50;;;;;;5085593;28;20036;-63
2021/04/06 00:43:19;;;;;;;2.77;1.60;;;1.60;66.30;;;;;;5087597;28;20467;-63
2021/04/06 00:45:48;;;;;;;4.88;1.70;;;1.50;66.10;;;;;;5086850;28;20355;-64
2021/04/06 00:48:19;;;;;;;5.82;1.58;;;1.50;65.30;;;;;;5086046;28;20020;-64
2021/04/06 00:51:07;;;;;;;5.05;1.75;;;1.50;65.20;;;;;;5083962;28;20040;-63
2021/04/06 00:54:03;;;;;;;6.38;1.35;;;1.50;65.30;;;;;;5084791;28;20085;-63
2021/04/06 00:56:44;;;;;;;5.72;1.80;;;1.40;65.10;;;;;;5085794;28;20036;-63
2021/04/06 00:59:21;;;;;;;3.70;1.40;;;1.40;64.90;;;;;;5088044;28;20584;-64
2021/04/06 01:01:49;;;;;;;4.72;1.50;;;1.40;64.70;;;;;;5083301;28;20085;-64
2021/04/06 01:04:18;;;;;;;1.88;1.40;;;1.40;64.60;;;;;;5085240;28;20055;-64
2021/04/06 01:07:10;;;;;;;3.38;1.10;;;1.40;64.40;;;;;;5084745;28;20036;-63
2021/04/06 01:09:46;;;;;;;2.60;1.42;;;1.40;64.90;;;;;;5087336;28;20098;-64
2021/04/06 01:12:19;;;;;;;5.32;1.80;;;1.30;64.40;;;;;;5083840;28;20032;-63
2021/04/06 01:14:51;;;;;;;6.75;1.40;;;1.30;64.20;;;;;;5084000;28;20032;-64
2021/04/06 01:17:27;;;;;;;5.40;1.70;;;1.30;64.10;;;;;;5086670;28;20044;-64
2021/04/06 01:19:58;;;;;;;5.70;1.52;;;1.30;64.00;;;;;;5087751;28;20040;-64
2021/04/06 01:22:28;;;;;;;2.58;1.38;;;1.30;63.90;;;;;;5081481;28;20028;-64
2021/04/06 01:24:58;;;;;;;3.83;1.40;;;1.30;64.00;;;;;;5083654;28;20035;-62
2021/04/06 01:27:29;;;;;;;4.53;1.67;;;1.30;64.00;;;;;;5087091;28;20059;-63
2021/04/06 01:29:58;;;;;;;3.30;1.25;;;1.30;64.00;;;;;;5087459;28;20501;-63
2021/04/06 01:32:30;;;;;;;4.13;1.67;;;1.20;63.90;;;;;;5083918;28;20032;-62
2021/04/06 01:34:58;;;;;;;2.85;1.20;;;1.30;64.00;;;;;;5084379;28;20056;-64
2021/04/06 01:37:31;;;;;;;5.85;1.70;;;1.30;63.80;;;;;;5084323;28;20051;-63
2021/04/06 01:39:59;;;;;;;3.92;1.48;;;1.30;63.60;;;;;;5087588;28;20036;-64
2021/04/06 01:42:28;;;;;;;4.93;1.40;;;1.30;63.50;;;;;;5086214;28;20055;-64
2021/04/06 01:44:55;;;;;;;3.13;1.40;;;1.20;63.40;;;;;;5082476;28;20071;-64
2021/04/06 01:47:23;;;;;;;2.50;1.50;;;1.30;63.50;;;;;;5083332;28;20036;-64
2021/04/06 01:49:49;;;;;;;3.58;1.23;;;1.30;63.30;;;;;;5085852;28;20032;-64
2021/04/06 01:52:15;;;;;;;5.00;1.60;;;1.20;63.20;;;;;;5100370;28;20035;-64
2021/04/06 01:54:44;;;;;;;3.72;1.60;;;1.20;63.30;;;;;;5083544;28;20046;-64
2021/04/06 01:57:19;;;;;;;5.00;1.70;;;1.20;63.20;;;;;;5086706;28;20642;-63
2021/04/06 01:59:55;;;;;;;5.65;1.35;;;1.20;63.20;;;;;;5086984;28;20117;-64
2021/04/06 02:02:35;;;;;;;2.83;1.30;;;1.20;63.20;;;;;;5084819;28;20028;-65
2021/04/06 02:05:06;;;;;;;3.33;1.42;;;1.20;63.50;;;;;;5085464;28;20032;-63
2021/04/06 02:07:36;;;;;;;2.55;1.20;;;1.20;63.20;;;;;;5085245;28;20078;-64
2021/04/06 02:10:07;;;;;;;5.95;1.45;;;1.20;63.00;;;;;;5085983;28;20032;-64
2021/04/06 02:12:45;;;;;;;4.00;1.70;;;1.30;63.00;;;;;;5082011;28;20043;-64
2021/04/06 02:15:18;;;;;;;4.70;1.23;;;1.30;63.10;;;;;;5084959;28;20044;-64
2021/04/06 02:17:54;;;;;;;4.32;1.33;;;1.30;62.80;;;;;;5084009;28;20509;-65
2021/04/06 02:20:30;;;;;;;6.65;1.38;;;1.30;62.70;;;;;;5081018;28;20385;-62
2021/04/06 02:23:03;;;;;;;2.92;1.20;;;1.30;62.50;;;;;;5085085;28;20036;-64
2021/04/06 02:25:31;;;;;;;4.80;1.40;;;1.20;62.30;;;;;;5084970;28;20386;-64
2021/04/06 02:28:01;;;;;;;3.75;1.48;;;1.20;62.30;;;;;;5081822;28;20032;-65
2021/04/06 02:30:32;;;;;;;4.93;1.38;;;1.20;62.30;;;;;;5085059;28;20119;-64
2021/04/06 02:33:03;;;;;;;3.80;1.40;;;1.10;62.30;;;;;;5085566;28;20103;-64
2021/04/06 02:35:33;;;;;;;4.28;1.58;;;1.10;62.30;;;;;;5083458;28;20070;-64
2021/04/06 02:38:03;;;;;;;1.73;1.20;;;1.00;62.20;;;;;;5087021;28;20227;-64
2021/04/06 02:40:29;;;;;;;5.85;1.52;;;0.80;62.20;;;;;;5084896;28;20033;-64
2021/04/06 02:42:56;;;;;;;8.85;1.48;;;0.90;62.20;;;;;;5086368;28;20032;-64
2021/04/06 02:45:29;;;;;;;3.47;1.40;;;0.80;62.20;;;;;;5086144;28;20385;-64
2021/04/06 02:48:07;;;;;;;4.53;1.48;;;0.80;63.20;;;;;;5083163;28;20459;-64
2021/04/06 02:50:39;;;;;;;4.20;1.52;;;0.70;62.60;;;;;;5082384;28;20040;-64
2021/04/06 02:53:08;;;;;;;3.80;1.63;;;0.70;62.70;;;;;;5082166;28;20028;-67
2021/04/06 02:55:38;;;;;;;5.18;1.60;;;0.60;63.00;;;;;;5085159;28;20024;-64
2021/04/06 02:58:16;;;;;;;9.63;1.88;;;0.60;63.00;;;;;;5086758;28;20032;-64
2021/04/06 03:00:49;;;;;;;4.65;1.70;;;0.70;63.20;;;;;;5085848;28;20726;-65
2021/04/06 03:03:30;;;;;;;5.25;1.77;;;0.70;63.00;;;;;;5078412;28;20393;-64
2021/04/06 03:06:04;;;;;;;4.28;1.60;;;0.70;63.00;;;;;;5085962;28;20036;-64
2021/04/06 03:08:35;;;;;;;5.35;1.67;;;0.70;62.80;;;;;;5085386;28;20447;-64
2021/04/06 03:11:01;;;;;;;3.50;1.50;;;0.70;62.70;;;;;;5086262;28;20036;-64
2021/04/06 03:13:34;;;;;;;3.70;1.65;;;0.70;62.60;;;;;;5089317;28;20024;-64
2021/04/06 03:16:05;;;;;;;6.20;1.67;;;0.70;62.70;;;;;;5087415;28;20036;-64
2021/04/06 03:18:34;;;;;;;4.90;1.48;;;0.70;62.60;;;;;;5087888;28;20327;-63
2021/04/06 03:21:06;;;;;;;3.33;1.60;;;0.70;62.50;;;;;;5089352;28;20020;-64
2021/04/06 03:23:39;;;;;;;5.70;1.65;;;0.70;62.60;;;;;;5086458;28;20421;-63
2021/04/06 03:26:10;;;;;;;6.03;1.52;;;0.70;62.70;;;;;;5088180;28;20544;-63
2021/04/06 03:28:38;;;;;;;4.63;1.73;;;0.70;62.80;;;;;;5088584;28;20036;-63
2021/04/06 03:31:16;;;;;;;3.80;1.63;;;0.70;62.60;;;;;;5088052;28;20039;-64
2021/04/06 03:33:48;;;;;;;4.05;1.70;;;0.70;62.80;;;;;;5087988;28;20046;-63
2021/04/06 03:36:41;;;;;;;4.50;1.30;;;0.70;62.60;;;;;;5088440;28;20032;-65
2021/04/06 03:39:10;;;;;;;4.18;1.65;;;0.70;63.00;;;;;;5089487;28;20028;-64
2021/04/06 03:41:44;;;;;;;3.05;1.67;;;0.60;62.50;;;;;;5087769;28;20574;-64
2021/04/06 03:44:11;;;;;;;6.38;1.70;;;0.60;62.50;;;;;;5089396;28;20036;-64
2021/04/06 03:46:42;;;;;;;5.35;1.50;;;0.60;62.30;;;;;;5083377;28;20032;-63
2021/04/06 03:49:26;;;;;;;2.22;1.50;;;0.50;62.40;;;;;;5088172;28;20458;-64
2021/04/06 03:52:24;;;;;;;6.55;1.77;;;0.50;62.50;;;;;;5087467;28;20521;-63
2021/04/06 03:54:50;;;;;;;2.72;1.55;;;0.50;62.60;;;;;;5077411;28;20040;-64
2021/04/06 03:59:58;;;;;;;3.83;1.95;;;0.50;62.40;;;;;;5087710;28;20564;-64
2021/04/06 04:02:28;;;;;;;5.82;1.90;;;0.50;62.10;;;;;;5081375;28;20060;-64
2021/04/06 04:05:00;;;;;;;5.00;1.67;;;0.50;62.10;;;;;;5087961;28;20037;-64
2021/04/06 04:07:31;;;;;;;3.78;1.92;;;0.50;62.10;;;;;;5083089;28;20055;-64
2021/04/06 04:10:02;;;;;;;4.80;1.83;;;0.50;62.10;;;;;;5076479;28;20036;-64
2021/04/06 04:12:34;;;;;;;4.40;1.90;;;0.50;62.00;;;;;;5078405;28;20490;-64
2021/04/06 04:15:06;;;;;;;6.80;2.45;;;0.50;62.10;;;;;;5085739;28;20063;-64
2021/04/06 04:17:36;;;;;;;4.00;2.05;;;0.40;63.20;;;;;;5084684;28;20468;-62
2021/04/06 04:20:13;;;;;;;6.40;2.17;;;0.40;62.20;;;;;;5085492;28;20032;-65
2021/04/06 04:22:43;;;;;;;4.25;2.15;;;0.30;62.60;;;;;;5087104;28;20518;-64
2021/04/06 04:25:13;;;;;;;5.80;2.13;;;0.30;62.50;;;;;;5087057;28;20036;-64
2021/04/06 04:27:47;;;;;;;3.33;2.22;;;0.20;62.60;;;;;;5085028;28;20520;-64
2021/04/06 04:30:19;;;;;;;2.07;1.83;;;0.10;62.80;;;;;;5083583;28;20048;-65
2021/04/06 04:33:05;;;;;;;5.68;2.35;;;0.10;62.80;;;;;;5071649;28;20556;-65
2021/04/06 04:35:36;;;;;;;5.47;2.47;;;0.00;63.00;;;;;;5078802;28;20035;-65
2021/04/06 04:38:05;;;;;;;4.65;2.38;;;0.00;63.00;;;;;;5077900;28;20119;-64
2021/04/06 04:40:32;;;;;;;4.78;2.38;;;0.00;63.20;;;;;;5084337;28;20029;-63
2021/04/06 04:43:02;;;;;;;9.32;2.30;;;-0.10;63.20;;;;;;5084406;28;20029;-63
2021/04/06 04:45:30;;;;;;;6.43;2.10;;;-0.10;64.20;;;;;;5086202;28;20599;-65
2021/04/06 04:48:02;;;;;;;5.60;2.00;;;-0.10;63.20;;;;;;5087221;28;20028;-65
2021/04/06 04:50:30;;;;;;;4.43;2.25;;;-0.10;63.30;;;;;;5087017;28;20237;-65
2021/04/06 04:52:58;;;;;;;6.80;2.47;;;-0.10;63.30;;;;;;5086131;28;20393;-64
2021/04/06 04:55:29;;;;;;;6.20;2.45;;;-0.10;63.20;;;;;;5087012;28;20497;-65
2021/04/06 04:58:02;;;;;;;6.10;2.90;;;-0.10;63.20;;;;;;5088069;28;20036;-65
2021/04/06 05:00:27;;;;;;;3.72;2.22;;;-0.10;63.20;;;;;;5084833;28;20115;-64
2021/04/06 05:03:00;;;;;;;4.43;2.38;;;-0.10;63.20;;;;;;5087022;28;20111;-64
2021/04/06 05:05:30;;;;;;;6.15;2.50;;;-0.10;63.10;;;;;;5086762;28;20036;-64
2021/04/06 05:07:58;;;;;;;4.40;2.10;;;-0.20;63.00;;;;;;5088019;28;20408;-65
2021/04/06 05:10:26;;;;;;;5.47;2.25;;;-0.10;63.00;;;;;;5083504;28;20093;-64
2021/04/06 05:12:58;;;;;;;3.58;2.35;;;-0.20;62.70;;;;;;5085847;28;20039;-64
2021/04/06 05:15:29;;;;;;;5.38;2.42;;;-0.10;63.10;;;;;;5087144;28;20512;-64
2021/04/06 05:17:59;;;;;;;3.95;2.20;;;-0.10;62.60;;;;;;5084971;28;20150;-64
2021/04/06 05:20:28;;;;;;;6.80;3.90;;;-0.10;62.60;;;;;;5085185;28;20766;-64
2021/04/06 05:22:55;;;;;;;6.40;2.13;;;-0.10;62.60;;;;;;5086644;28;20063;-64
2021/04/06 05:25:23;;;;;;;6.07;2.55;;;-0.10;62.60;;;;;;5086621;28;20036;-64
2021/04/06 05:27:49;;;;;;;6.03;2.65;;;0.00;62.60;;;;;;5086189;28;20066;-64
2021/04/06 05:30:20;;;;;;;4.75;1.73;;;0.00;62.50;;;;;;5083781;28;20028;-64
2021/04/06 05:32:51;;;;;;;5.35;1.90;;;0.00;62.50;;;;;;5101029;28;20271;-65
2021/04/06 05:35:21;;;;;;;6.60;1.98;;;0.00;62.30;;;;;;5084855;28;20032;-65
2021/04/06 05:37:50;;;;;;;5.35;2.25;;;0.00;62.30;;;;;;5087522;28;20044;-65
2021/04/06 05:40:21;;;;;;;7.25;1.55;;;0.00;62.30;;;;;;5101528;28;20053;-65
2021/04/06 05:42:49;;;;;;;8.85;2.35;;;0.00;62.30;;;;;;5087067;28;20036;-65
2021/04/06 05:45:19;;;;;;;6.28;2.17;;;0.10;62.30;;;;;;5085006;28;20036;-65
2021/04/06 05:47:50;;;;;;;5.00;1.95;;;0.10;62.30;;;;;;5084667;28;20036;-64
2021/04/06 05:50:21;;;;;;;4.45;2.13;;;0.20;62.30;;;;;;5084401;28;20466;-65
2021/04/06 05:52:47;;;;;;;6.00;2.00;;;0.20;62.00;;;;;;5084692;28;20039;-65
2021/04/06 05:55:15;;;;;;;6.95;2.30;;;0.20;62.00;;;;;;5084937;28;20035;-65
2021/04/06 05:57:45;;;;;;;12.55;2.60;;;0.20;62.00;;;;;;5086675;28;20041;-65
2021/04/06 06:00:16;;;;;;;7.25;2.05;;;0.20;62.00;;;;;;5086144;28;20587;-65
2021/04/06 06:02:49;;;;;;;4.53;2.65;;;0.20;62.00;;;;;;5078407;28;20051;-65
2021/04/06 06:05:22;;;;;;;5.93;2.13;;;0.20;62.20;;;;;;5086209;28;20404;-65
2021/04/06 06:07:50;;;;;;;5.35;2.50;;;0.20;62.30;;;;;;5086750;28;20512;-65
2021/04/06 06:10:32;;;;;;;8.35;2.10;;;0.20;62.30;;;;;;5084740;28;20508;-65
2021/04/06 06:13:24;;;;;;;5.82;2.15;;;0.20;62.50;;;;;;5086243;28;20039;-65
2021/04/06 06:16:28;;;;;;;4.93;2.50;;;0.20;62.50;;;;;;5085849;28;20056;-65
2021/04/06 06:19:10;;;;;;;4.88;2.40;;;0.30;62.90;;;;;;5023905;28;20026;-65
2021/04/06 06:21:42;;;;;;;9.30;3.40;;;0.30;62.60;;;;;;5081373;28;20111;-65
2021/04/06 06:24:14;;;;;;;6.68;2.60;;;0.30;62.60;;;;;;5086452;28;20505;-65
2021/04/06 06:26:42;;;;;;;6.68;2.10;;;0.30;62.40;;;;;;5084883;28;20505;-65
2021/04/06 06:29:16;;;;;;;9.20;2.72;;;0.30;62.30;;;;;;5084398;28;20523;-65
2021/04/06 06:31:50;;;;;;;6.80;1.97;;;0.40;62.50;;;;;;5084346;28;20070;-66
2021/04/06 06:34:34;;;;;;;8.43;2.50;;;0.40;62.60;;;;;;5082981;28;20500;-65
2021/04/06 06:37:25;;;;;;;7.53;2.72;;;0.40;62.50;;;;;;5084902;28;20051;-65
2021/04/06 06:40:02;;;;;;;3.70;2.20;;;0.40;62.40;;;;;;5084895;28;20032;-65
2021/04/06 06:42:36;;;;;;;9.65;2.75;;;0.40;62.30;;;;;;5088427;28;20039;-65
2021/04/06 06:45:05;;;;;;;5.25;2.20;;;0.40;62.30;;;;;;5089512;28;20036;-65
2021/04/06 06:47:33;;;;;;;5.20;2.22;;;0.40;62.10;;;;;;5089147;28;20079;-65
2021/04/06 06:50:14;;;;;;;3.40;1.70;;;0.50;62.20;;;;;;5087808;28;20032;-65
2021/04/06 06:52:46;;;;;;;7.70;2.50;;;0.50;62.50;;;;;;5089327;28;20043;-65
2021/04/06 06:55:21;;;;;;;8.57;2.10;;;0.50;62.10;;;;;;5089371;28;20048;-65
2021/04/06 06:57:47;;;;;;;;;;;0.50;62.50;;;;;;5090784;28;20120;-65
2021/04/06 07:00:22;;;;;;;6.75;2.03;;;0.60;62.90;;;;;;5089596;28;19939;-65
2021/04/06 07:02:48;;;;;;;7.35;1.80;;;0.60;62.40;;;;;;5077845;28;20168;-65
2021/04/06 07:05:22;;;;;;;9.10;1.83;;;0.60;62.40;;;;;;5087229;28;20115;-64
2021/04/06 07:07:51;;;;;;;;;;;0.70;62.80;;;;;;5087248;28;20039;-65
2021/04/06 07:10:25;;;;;;;7.57;2.10;;;0.80;63.80;;;;;;5088296;28;19912;-65
2021/04/06 07:13:03;;;;;;;5.47;2.05;;;0.80;62.80;;;;;;5088664;28;20040;-65
2021/04/06 07:15:34;;;;;;;6.45;2.15;;;0.90;63.00;;;;;;5088214;28;20043;-65
2021/04/06 07:18:13;;;;;;;4.72;1.95;;;1.00;63.00;;;;;;5089373;28;20043;-65
2021/04/06 07:21:01;;;;;;;6.00;2.17;;;1.00;63.20;;;;;;5088519;28;20099;-65
2021/04/06 07:23:52;;;;;;;10.02;2.13;;;1.00;63.00;;;;;;5083165;28;20107;-65
2021/04/06 07:26:22;;;;;;;5.05;1.60;;;1.10;63.10;;;;;;5083043;28;20442;-65
2021/04/06 07:28:52;;;;;;;8.45;1.88;;;1.10;62.80;;;;;;5087224;28;20382;-65
2021/04/06 07:31:18;;;;;;;4.63;1.60;;;1.20;62.80;;;;;;5086870;28;20039;-65
2021/04/06 07:33:48;;;;;;;3.38;1.83;;;1.30;62.70;;;;;;5085584;28;20036;-65
2021/04/06 07:36:25;;;;;;;8.63;2.53;;;1.30;62.50;;;;;;5087691;28;20044;-65
2021/04/06 07:39:00;;;;;;;8.82;1.80;;;1.40;62.30;;;;;;5088137;28;20028;-64
2021/04/06 07:41:33;;;;;;;2.70;1.50;;;1.40;62.10;;;;;;5087471;28;20058;-65
2021/04/06 07:44:03;;;;;;;4.82;1.42;;;1.50;62.10;;;;;;5084991;28;20630;-64
2021/04/06 07:46:37;;;;;;;7.10;1.77;;;1.50;62.00;;;;;;5087176;28;20040;-65
2021/04/06 07:49:11;;;;;;;4.15;1.30;;;1.60;61.90;;;;;;5081158;28;20274;-65
2021/04/06 07:51:48;;;;;;;6.85;1.70;;;1.60;62.10;;;;;;5087878;28;20040;-65
2021/04/06 07:54:46;;;;;;;6.13;1.83;;;1.70;62.20;;;;;;5086037;28;20040;-65
2021/04/06 07:57:12;;;;;;;3.80;1.67;;;1.70;62.40;;;;;;5087387;28;20043;-65
2021/04/06 07:59:43;;;;;;;6.18;1.70;;;1.80;62.10;;;;;;5088729;28;20057;-64
2021/04/06 08:02:12;;;;;;;6.90;1.58;;;1.90;62.20;;;;;;5087535;28;20032;-65
2021/04/06 08:04:40;;;;;;;3.60;1.45;;;2.00;62.00;;;;;;5084533;28;20111;-64
2021/04/06 08:07:32;;;;;;;6.35;1.67;;;2.00;61.80;;;;;;5088197;28;20084;-65
2021/04/06 08:10:21;;;;;;;3.00;1.00;;;2.10;62.00;;;;;;5080428;28;20036;-64
2021/04/06 08:12:53;;;;;;;5.75;1.50;;;2.20;61.50;;;;;;5087452;28;20039;-64
2021/04/06 08:15:21;;;;;;;7.00;1.40;;;2.30;61.20;;;;;;5087409;28;20127;-65
2021/04/06 08:17:59;;;;;;;7.68;1.58;;;2.40;61.00;;;;;;5082540;28;20036;-64
2021/04/06 08:20:38;;;;;;;5.38;1.63;;;2.50;60.90;;;;;;5085467;28;20028;-64
2021/04/06 08:23:08;;;;;;;6.90;1.40;;;2.50;61.20;;;;;;5086113;28;20032;-64
2021/04/06 08:25:42;;;;;;;5.32;1.35;;;2.60;61.10;;;;;;5085832;28;20032;-64
2021/04/06 08:28:32;;;;;;;5.43;1.52;;;2.80;61.00;;;;;;5087725;28;20132;-64
2021/04/06 08:31:18;;;;;;;3.15;1.30;;;2.80;60.70;;;;;;5088302;28;20439;-64
2021/04/06 08:33:46;;;;;;;7.00;1.77;;;3.00;60.00;;;;;;5087208;28;20043;-64
2021/04/06 08:36:23;;;;;;;6.18;1.40;;;3.00;59.80;;;;;;5085930;28;20036;-64
2021/04/06 08:38:51;;;;;;;3.92;1.30;;;3.00;60.40;;;;;;5086764;28;20032;-64
2021/04/06 08:41:30;;;;;;;3.72;1.20;;;3.10;60.50;;;;;;5086975;28;20035;-64
2021/04/06 08:44:00;;;;;;;3.20;0.90;;;3.20;59.70;;;;;;5087951;28;20416;-64
2021/04/06 08:46:43;;;;;;;5.88;1.25;;;3.20;59.60;;;;;;5085517;28;20420;-64
2021/04/06 08:49:29;;;;;;;3.75;1.65;;;3.20;59.20;;;;;;5085575;28;20505;-64
2021/04/06 08:52:04;;;;;;;7.25;1.50;;;3.30;59.30;;;;;;5086779;28;20508;-64
2021/04/06 08:54:34;;;;;;;5.82;1.35;;;3.30;59.00;;;;;;5086423;28;20036;-64
2021/04/06 08:57:09;;;;;;;3.55;1.70;;;3.30;59.20;;;;;;5085637;28;20040;-64
2021/04/06 08:59:45;;;;;;;4.63;1.80;;;3.30;59.00;;;;;;5086602;28;20432;-64
2021/04/06 09:02:20;;;;;;;6.05;1.35;;;3.30;58.80;;;;;;5085950;28;20036;-64
2021/04/06 09:04:50;;;;;;;5.15;1.42;;;3.30;58.90;;;;;;5085915;28;20151;-63
2021/04/06 09:07:25;;;;;;;2.90;1.35;;;3.40;59.00;;;;;;5086653;28;20036;-64
2021/04/06 09:09:59;;;;;;;6.75;2.38;;;3.40;59.20;;;;;;5084346;28;20032;-64
2021/04/06 09:12:27;;;;;;;5.50;1.58;;;3.40;58.80;;;;;;5082474;28;20036;-64
2021/04/06 09:14:56;;;;;;;6.88;1.83;;;3.50;58.80;;;;;;5086569;28;20039;-64
2021/04/06 09:17:32;;;;;;;7.43;1.80;;;3.50;58.80;;;;;;5085783;28;20089;-63
2021/04/06 09:20:14;;;;;;;4.28;1.77;;;3.60;58.90;;;;;;5102678;28;20482;-63
2021/04/06 09:22:50;;;;;;;8.02;1.92;;;3.70;58.90;;;;;;5086586;28;20059;-63
2021/04/06 09:25:23;;;;;;;5.25;1.30;;;3.70;58.80;;;;;;5085944;28;20036;-64
2021/04/06 09:28:01;;;;;;;5.80;1.75;;;3.80;58.80;;;;;;5084501;28;20040;-64
2021/04/06 09:30:34;;;;;;;5.82;1.60;;;3.80;58.50;;;;;;5085563;28;20059;-64
2021/04/06 09:33:17;;;;;;;6.63;2.00;;;3.80;58.30;;;;;;5087028;28;20504;-63
2021/04/06 09:35:54;;;;;;;8.18;1.98;;;3.90;58.80;;;;;;5086420;28;20101;-64
2021/04/06 09:38:23;;;;;;;5.25;1.60;;;3.90;57.80;;;;;;5085007;28;20467;-64
2021/04/06 09:40:52;;;;;;;7.20;1.75;;;3.80;57.50;;;;;;5084453;28;20051;-64
2021/04/06 09:43:21;;;;;;;4.15;1.30;;;3.80;57.80;;;;;;5085844;28;20528;-64
2021/04/06 09:45:50;;;;;;;5.70;1.88;;;3.70;57.60;;;;;;5081654;28;20029;-64
2021/04/06 09:48:19;;;;;;;4.45;1.25;;;3.80;57.60;;;;;;5085169;28;20036;-64
2021/04/06 09:51:07;;;;;;;7.82;2.03;;;3.70;57.70;;;;;;5086061;28;20382;-65
2021/04/06 09:53:39;;;;;;;9.20;2.97;;;3.70;57.60;;;;;;5077774;28;20051;-64
2021/04/06 09:56:08;;;;;;;7.65;1.65;;;3.70;57.90;;;;;;5084623;28;20408;-65
2021/04/06 09:58:38;;;;;;;10.90;1.75;;;3.70;57.70;;;;;;5084399;28;20127;-64
2021/04/06 10:01:23;;;;;;;6.15;1.42;;;3.70;57.90;;;;;;5085114;28;20124;-65
2021/04/06 10:04:00;;;;;;;7.40;1.70;;;3.70;57.80;;;;;;5079240;28;20044;-64
2021/04/06 10:06:43;;;;;;;7.05;1.38;;;3.60;57.80;;;;;;5085021;28;20071;-64
2021/04/06 10:09:22;;;;;;;5.88;1.50;;;3.60;58.00;;;;;;5082258;28;20500;-64
2021/04/06 10:11:49;;;;;;;6.38;2.00;;;3.60;57.80;;;;;;5078392;28;20128;-64
2021/04/06 10:14:15;;;;;;;5.68;2.00;;;3.60;57.70;;;;;;5076317;28;20055;-64
2021/04/06 10:16:44;;;;;;;7.55;1.60;;;3.60;57.90;;;;;;5084052;28;20044;-63
2021/04/06 10:19:25;;;;;;;4.22;1.50;;;3.60;57.80;;;;;;5088662;28;20035;-64
2021/04/06 10:22:17;;;;;;;4.43;1.38;;;3.60;57.70;;;;;;5087008;28;20500;-64
2021/04/06 10:24:47;;;;;;;6.90;1.63;;;3.60;57.80;;;;;;5084273;28;20500;-64
2021/04/06 10:27:18;;;;;;;4.05;1.20;;;3.60;58.20;;;;;;5089923;28;20255;-65
2021/04/06 10:29:50;;;;;;;5.22;1.58;;;3.60;58.10;;;;;;5089005;28;20535;-64
2021/04/06 10:32:30;;;;;;;6.72;1.50;;;3.60;57.80;;;;;;5080369;28;20031;-65
2021/04/06 10:35:12;;;;;;;7.43;1.70;;;3.60;58.10;;;;;;5088787;28;20036;-64
2021/04/06 10:38:02;;;;;;;3.17;1.15;;;3.60;58.20;;;;;;5090797;28;20050;-64
2021/04/06 10:40:32;;;;;;;7.28;2.00;;;3.60;58.30;;;;;;5086378;28;20040;-65
2021/04/06 10:43:05;;;;;;;5.95;2.13;;;3.60;59.20;;;;;;5088015;28;20029;-64
2021/04/06 10:45:38;;;;;;;5.45;1.80;;;3.70;58.40;;;;;;5088052;28;20381;-65
2021/04/06 10:48:09;;;;;;;4.82;1.58;;;3.80;58.30;;;;;;5089223;28;20040;-64
2021/04/06 10:50:41;;;;;;;3.03;1.63;;;3.80;58.10;;;;;;5088120;28;20067;-65
2021/04/06 10:53:20;;;;;;;5.07;1.75;;;3.90;57.90;;;;;;5089677;28;20428;-65
2021/04/06 10:56:03;;;;;;;5.85;1.55;;;4.00;57.60;;;;;;5089559;28;20033;-64
2021/04/06 10:58:37;;;;;;;3.83;1.33;;;3.90;57.80;;;;;;5086959;28;20032;-66
2021/04/06 11:01:11;;;;;;;6.20;1.83;;;4.00;58.80;;;;;;5089311;28;20111;-65
2021/04/06 11:03:39;;;;;;;9.05;1.80;;;4.10;58.50;;;;;;5089137;28;20258;-64
2021/04/06 11:06:23;;;;;;;3.25;1.23;;;4.20;58.30;;;;;;5088625;28;20107;-65
2021/04/06 11:08:55;;;;;;;3.33;1.02;;;4.30;57.90;;;;;;5088885;28;20501;-65
2021/04/06 11:11:36;;;;;;;6.53;1.60;;;4.40;58.10;;;;;;5079379;28;20028;-65
2021/04/06 11:14:31;;;;;;;4.15;1.48;;;4.50;57.80;;;;;;5088860;28;20112;-65
2021/04/06 11:17:05;;;;;;;7.80;1.37;;;4.70;56.90;;;;;;5086629;28;20405;-64
2021/04/06 11:19:40;;;;;;;2.03;1.08;;;4.70;56.90;;;;;;5105385;28;20373;-65
2021/04/06 11:22:10;;;;;;;4.00;1.13;;;4.80;56.80;;;;;;5089412;28;20036;-64
2021/04/06 11:24:37;;;;;;;4.35;1.30;;;4.80;56.10;;;;;;5086963;28;20024;-65
2021/04/06 11:27:05;;;;;;;7.70;1.63;;;4.80;56.20;;;;;;5086893;28;20115;-65
2021/04/06 11:29:32;;;;;;;2.42;1.10;;;4.80;56.30;;;;;;5088438;28;20025;-65
2021/04/06 11:32:03;;;;;;;7.25;2.08;;;4.90;56.30;;;;;;5089600;28;20036;-65
2021/04/06 11:34:29;;;;;;;7.85;1.67;;;4.90;56.40;;;;;;5086657;28;20032;-63
2021/04/06 11:36:58;;;;;;;6.28;1.40;;;4.90;56.20;;;;;;5102985;28;20040;-65
2021/04/06 11:39:26;;;;;;;5.80;1.30;;;4.90;55.00;;;;;;5088228;28;20442;-65
2021/04/06 11:41:52;;;;;;;5.60;1.27;;;4.90;54.20;;;;;;5089757;28;20047;-64
2021/04/06 11:44:18;;;;;;;6.45;1.30;;;5.00;54.10;;;;;;5087785;28;20059;-65
2021/04/06 11:46:52;;;;;;;5.05;1.35;;;5.00;54.90;;;;;;5079117;28;20063;-65
2021/04/06 11:49:20;;;;;;;1.92;1.00;;;5.00;54.60;;;;;;5104746;28;20036;-65
2021/04/06 11:51:53;;;;;;;3.33;1.30;;;4.90;54.80;;;;;;5084436;28;20036;-65
2021/04/06 11:54:22;;;;;;;3.40;1.35;;;5.00;55.00;;;;;;5086039;28;20032;-64
2021/04/06 11:56:51;;;;;;;6.38;1.30;;;5.10;54.40;;;;;;5084691;28;20071;-65
2021/04/06 11:59:21;;;;;;;4.07;1.20;;;5.10;53.60;;;;;;5087199;28;20077;-65
2021/04/06 12:01:51;;;;;;;4.53;1.20;;;5.10;53.50;;;;;;5087184;28;20032;-65
2021/04/06 12:04:17;;;;;;;3.65;1.17;;;5.10;53.60;;;;;;5087991;28;20029;-66
2021/04/06 12:06:44;;;;;;;4.13;1.48;;;5.10;53.70;;;;;;5085603;28;20044;-66
2021/04/06 12:09:12;;;;;;;6.68;1.20;;;5.10;53.00;;;;;;5087613;28;20047;-65
2021/04/06 12:11:38;;;;;;;4.43;1.30;;;5.20;53.10;;;;;;5084255;28;20413;-66
2021/04/06 12:14:07;;;;;;;4.60;1.10;;;5.20;53.40;;;;;;5088743;28;20032;-65
2021/04/06 12:16:32;;;;;;;5.70;1.48;;;5.30;54.00;;;;;;5086970;28;20128;-66
2021/04/06 12:18:58;;;;;;;4.38;1.40;;;5.30;53.20;;;;;;5087019;28;20166;-66
2021/04/06 12:21:30;;;;;;;3.08;1.33;;;5.30;53.30;;;;;;5087592;28;20039;-65
2021/04/06 12:24:03;;;;;;;5.82;1.13;;;5.30;52.30;;;;;;5088283;28;20036;-65
2021/04/06 12:26:29;;;;;;;3.55;1.00;;;5.40;52.80;;;;;;5086601;28;20643;-65
2021/04/06 12:28:54;;;;;;;2.75;1.02;;;5.30;52.90;;;;;;5083299;28;20166;-65
2021/04/06 12:31:20;;;;;;;1.98;0.85;;;5.30;52.70;;;;;;5086615;28;20456;-65
2021/04/06 12:33:50;;;;;;;3.55;1.10;;;5.30;52.50;;;;;;5086403;28;20047;-65
2021/04/06 12:36:20;;;;;;;4.65;1.15;;;5.20;53.10;;;;;;5079107;28;20051;-65
2021/04/06 12:38:50;;;;;;;4.75;1.05;;;5.20;53.90;;;;;;5086350;28;20084;-65
2021/04/06 12:41:20;;;;;;;11.90;1.50;;;5.20;54.30;;;;;;5087285;28;20024;-66
2021/04/06 12:43:50;;;;;;;4.13;1.50;;;5.20;54.30;;;;;;5087883;28;20036;-65
2021/04/06 12:46:16;;;;;;;4.50;1.30;;;5.20;54.60;;;;;;5085511;28;20024;-65
2021/04/06 12:48:44;;;;;;;3.95;1.20;;;5.20;54.50;;;;;;5084016;28;20397;-65
2021/04/06 12:51:09;;;;;;;2.13;1.10;;;5.30;54.10;;;;;;5087519;28;20055;-65
2021/04/06 12:53:37;;;;;;;4.07;1.38;;;5.30;54.40;;;;;;5084459;28;20562;-65
2021/04/06 12:56:08;;;;;;;3.08;1.20;;;5.30;54.70;;;;;;5087166;28;20169;-65
2021/04/06 12:58:39;;;;;;;5.53;1.45;;;5.40;54.70;;;;;;5087195;28;20024;-65
2021/04/06 13:01:04;;;;;;;3.22;1.45;;;5.40;54.10;;;;;;5086595;28;20021;-65
2021/04/06 13:03:37;;;;;;;4.20;1.52;;;5.50;54.30;;;;;;5085864;28;20110;-65
2021/04/06 13:06:05;;;;;;;5.10;1.50;;;5.50;54.20;;;;;;5086115;28;20512;-65
2021/04/06 13:08:33;;;;;;;4.78;1.52;;;5.50;53.40;;;;;;5086515;28;20043;-64
2021/04/06 13:11:01;;;;;;;5.97;1.80;;;5.60;53.20;;;;;;5085637;28;20042;-65
2021/04/06 13:13:32;;;;;;;3.45;1.42;;;5.50;52.80;;;;;;5087088;28;20073;-64
2021/04/06 13:16:00;;;;;;;8.13;1.23;;;5.50;52.40;;;;;;5085921;28;20036;-65
2021/04/06 13:18:26;;;;;;;5.18;1.50;;;5.50;51.00;;;;;;5085259;28;20032;-65
2021/04/06 13:20:56;;;;;;;3.92;1.20;;;5.50;50.40;;;;;;5083631;28;20136;-65
2021/04/06 13:23:24;;;;;;;3.35;1.40;;;5.50;50.30;;;;;;5085434;28;20059;-65
2021/04/06 13:25:50;;;;;;;3.42;1.05;;;5.50;51.00;;;;;;5084961;28;20124;-64
2021/04/06 13:28:18;;;;;;;5.82;1.50;;;5.50;50.10;;;;;;5084141;28;20115;-65